Hlavní strana
METAR-TAF:

METAR-TAF

Letiště :

Kingston, Jamajka

Mezinárodní letiště Norman Manley

zeměpisná šířka: 17-56N, zeměpisná délka: 076-47W, výška: 3 m

Aktuální stav počasí

Zpráva byla vytvořena před 17 minutami, v 18:00 UTC
Jihovýchodní vítr 12 kt
Teplota 30°C
Vlhkost vzduchu 70%
Tlak 1013 hPa
Viditelnost 10 km a více
Polojasno ve výšce 2200 ft

METAR: MKJP 211800Z 14012KT 9999 SCT022 30/24 Q1013

Čas: 13:17 (18:17 UTC)

Předpověď počasí

Zpráva byla vytvořena před 1 hodinou a 2 minutami, v 17:15 UTC
Předpověď platná od 21 v 18 UTC do 22 v 18 UTC
Jihovýchodní vítr 20 kt
Viditelnost 10 km a více
Polojasno ve výšce 2200 ft
Změna
od 22 v 01 UTC do 22 v 03 UTC
Severní vítr 7 kt
Změna
od 22 v 15 UTC do 22 v 17 UTC
Jihovýchodní vítr 15 kt

TAF: MKJP 211715Z 2118/2218 14020KT 9999 SCT022 BECMG 2201/2203 01007KT BECMG 2215/2217 14015KT

Stav a předpovědi počasí z více než 4 000 letišť (zprávy METAR a TAF).

Červené a žluté tečky na mapě představují dostupné meteorologické stanice.

Když kurzor umístíte na tečku, zobrazí se název stanice.

Pak kliknutím zobrazíte stav a předpověď počasí.

Chcete-li změnit mapu, kliknutím na zelené tlačítko se znaménkem +mapu přiblížíte, kliknutím na zelené tlačítko se znaménkem – mapu oddálíte a kliknutím na zelené šipky přejdete na sousední mapy.


METAR-TAF: